Time;durP1;ratioP1;P1;durP2;ratioP2;P2;SDS_P1;SDS_P2;PMS_P1;PMS_P2;Temp;Humidity;BMP_temperature;BMP_pressure;BME280_temperature;BME280_humidity;BME280_pressure;Samples;Min_cycle;Max_cycle;Signal;HPM_P1;HPM_P2
2021/07/05 00:01:14;;;;;;;1999.90;999.90;;;10.20;99.90;;;;;;5074976;28;20204;-42
2021/07/05 00:03:40;;;;;;;1999.90;999.90;;;10.10;99.90;;;;;;5075332;28;20222;-42
2021/07/05 00:06:07;;;;;;;1999.90;999.90;;;10.20;99.90;;;;;;5074875;28;20164;-42
2021/07/05 00:08:34;;;;;;;1999.90;999.90;;;10.10;99.90;;;;;;5074731;28;20247;-42
2021/07/05 00:11:01;;;;;;;1999.90;999.90;;;10.20;99.90;;;;;;5075020;28;20215;-42
2021/07/05 00:13:28;;;;;;;1999.90;999.90;;;10.00;99.90;;;;;;5074654;28;20215;-42
2021/07/05 00:15:55;;;;;;;1999.90;999.90;;;10.00;99.90;;;;;;5074640;28;20250;-44
2021/07/05 00:18:22;;;;;;;1999.90;999.90;;;9.90;99.90;;;;;;5075029;28;20196;-42
2021/07/05 00:20:49;;;;;;;1999.90;999.90;;;9.90;99.90;;;;;;5074667;28;20214;-42
2021/07/05 00:23:16;;;;;;;1999.90;999.90;;;9.80;99.90;;;;;;5075186;28;20214;-42
2021/07/05 00:25:43;;;;;;;1999.90;999.90;;;9.80;99.90;;;;;;5074578;28;20176;-43
2021/07/05 00:28:11;;;;;;;1999.90;999.90;;;9.80;99.90;;;;;;5074375;28;20288;-44
2021/07/05 00:30:38;;;;;;;1999.90;999.90;;;9.70;99.90;;;;;;5074415;28;20180;-42
2021/07/05 00:33:05;;;;;;;1999.90;999.90;;;9.60;99.90;;;;;;5074519;28;20175;-42
2021/07/05 00:35:32;;;;;;;1999.90;999.90;;;9.60;99.90;;;;;;5074375;28;20172;-44
2021/07/05 00:37:59;;;;;;;1999.90;999.90;;;9.60;99.90;;;;;;5074647;28;20187;-42
2021/07/05 00:40:27;;;;;;;1999.90;999.90;;;9.60;99.90;;;;;;5074173;28;20286;-41
2021/07/05 00:42:58;;;;;;;1999.90;999.90;;;9.60;99.90;;;;;;5073988;28;20169;-43
2021/07/05 00:45:27;;;;;;;1999.90;999.90;;;9.50;99.90;;;;;;5074390;28;20652;-45
2021/07/05 00:47:54;;;;;;;1999.90;999.90;;;9.50;99.90;;;;;;5073914;28;20172;-44
2021/07/05 00:50:24;;;;;;;1999.90;999.90;;;9.30;99.90;;;;;;5074197;28;20639;-42
2021/07/05 00:52:54;;;;;;;1999.90;999.90;;;9.30;99.90;;;;;;5074162;28;20168;-42
2021/07/05 00:55:21;;;;;;;1999.90;999.90;;;9.30;99.90;;;;;;5074352;28;20567;-41
2021/07/05 00:57:48;;;;;;;1999.90;999.90;;;9.30;99.90;;;;;;5074199;28;20204;-42
2021/07/05 01:00:18;;;;;;;1999.90;999.90;;;9.20;99.90;;;;;;5073377;28;20188;-42
2021/07/05 01:02:45;;;;;;;1999.90;999.90;;;9.20;99.90;;;;;;5074157;28;20172;-42
2021/07/05 01:05:13;;;;;;;1999.90;999.90;;;9.10;99.90;;;;;;5074427;28;20164;-42
2021/07/05 01:07:41;;;;;;;1999.90;999.90;;;9.10;99.90;;;;;;5073708;28;20177;-42
2021/07/05 01:10:09;;;;;;;1999.90;999.90;;;9.10;99.90;;;;;;5073866;28;20173;-42
2021/07/05 01:12:38;;;;;;;1999.90;999.90;;;9.10;99.90;;;;;;5074080;28;20176;-42
2021/07/05 01:15:07;;;;;;;1999.90;999.90;;;9.00;99.90;;;;;;5073285;28;20181;-42
2021/07/05 01:17:34;;;;;;;1999.90;999.90;;;8.90;99.90;;;;;;5073605;28;20167;-42
2021/07/05 01:20:01;;;;;;;1999.90;999.90;;;9.00;99.90;;;;;;5073754;28;20176;-41
2021/07/05 01:22:28;;;;;;;1999.90;999.90;;;9.00;99.90;;;;;;5073332;28;20246;-42
2021/07/05 01:24:55;;;;;;;1999.90;999.90;;;8.90;99.90;;;;;;5073619;28;20676;-42
2021/07/05 01:27:23;;;;;;;1999.90;999.90;;;8.90;99.90;;;;;;5073574;28;20242;-42
2021/07/05 01:29:50;;;;;;;1999.90;999.90;;;8.70;99.90;;;;;;5073417;28;20180;-41
2021/07/05 01:32:18;;;;;;;1999.90;999.90;;;8.80;99.90;;;;;;5073391;28;20721;-41
2021/07/05 01:34:44;;;;;;;1999.90;999.90;;;8.90;99.90;;;;;;5073493;28;20481;-41
2021/07/05 01:37:11;;;;;;;1999.90;999.90;;;8.80;99.90;;;;;;5073146;28;20526;-42
2021/07/05 01:39:39;;;;;;;1999.90;999.90;;;8.70;99.90;;;;;;5073392;28;20208;-41
2021/07/05 01:42:07;;;;;;;1999.90;999.90;;;8.70;99.90;;;;;;5072921;28;20208;-41
2021/07/05 01:44:34;;;;;;;1999.90;999.90;;;8.60;99.90;;;;;;5072810;28;20269;-41
2021/07/05 01:47:01;;;;;;;1999.90;999.90;;;8.50;99.90;;;;;;5073469;28;20182;-41
2021/07/05 01:49:28;;;;;;;1999.90;999.90;;;8.60;99.90;;;;;;5072859;28;20255;-41
2021/07/05 01:51:55;;;;;;;1999.90;999.90;;;8.60;99.90;;;;;;5072881;28;20178;-41
2021/07/05 01:54:22;;;;;;;1999.90;999.90;;;8.60;99.90;;;;;;5073177;28;20667;-42
2021/07/05 01:56:49;;;;;;;1999.90;999.90;;;8.40;99.90;;;;;;5072853;28;20195;-41
2021/07/05 01:59:15;;;;;;;1999.90;999.90;;;8.40;99.90;;;;;;5073003;28;20199;-42
2021/07/05 02:01:42;;;;;;;1999.90;999.90;;;8.50;99.90;;;;;;5072643;28;20283;-42
2021/07/05 02:04:09;;;;;;;1999.90;999.90;;;8.50;99.90;;;;;;5072616;28;20168;-41
2021/07/05 02:06:36;;;;;;;1999.90;999.90;;;8.50;99.90;;;;;;5072710;28;20169;-42
2021/07/05 02:09:06;;;;;;;1999.90;999.90;;;8.30;99.90;;;;;;5072564;28;20179;-42
2021/07/05 02:11:34;;;;;;;1999.90;999.90;;;8.20;99.90;;;;;;5071382;28;20353;-41
2021/07/05 02:14:01;;;;;;;1999.90;999.90;;;8.30;99.90;;;;;;5072684;28;20627;-42
2021/07/05 02:16:27;;;;;;;1999.90;999.90;;;8.40;99.90;;;;;;5072501;28;20579;-42
2021/07/05 02:18:54;;;;;;;1999.90;999.90;;;8.40;99.90;;;;;;5072229;28;20186;-41
2021/07/05 02:21:21;;;;;;;1999.90;999.90;;;8.40;99.90;;;;;;5072900;28;20196;-41
2021/07/05 02:23:48;;;;;;;1999.90;999.90;;;8.30;99.90;;;;;;5072351;28;20176;-41
2021/07/05 02:26:15;;;;;;;1999.90;999.90;;;8.30;99.90;;;;;;5072240;28;20172;-42
2021/07/05 02:28:41;;;;;;;1999.90;999.90;;;8.20;99.90;;;;;;5072379;28;20173;-45
2021/07/05 02:31:09;;;;;;;1999.90;999.90;;;7.90;99.90;;;;;;5072024;28;20175;-44
2021/07/05 02:33:37;;;;;;;1999.90;999.90;;;7.90;99.90;;;;;;5072302;28;20163;-44
2021/07/05 02:36:08;;;;;;;1999.90;999.90;;;7.90;99.90;;;;;;5072014;28;20182;-44
2021/07/05 02:38:37;;;;;;;1999.90;999.90;;;7.80;99.90;;;;;;5072060;28;20148;-44
2021/07/05 02:41:05;;;;;;;1999.90;999.90;;;7.70;99.90;;;;;;5071839;28;20234;-44
2021/07/05 02:43:32;;;;;;;1999.90;999.90;;;7.70;99.90;;;;;;5072151;28;20171;-44
2021/07/05 02:46:00;;;;;;;1999.90;999.90;;;7.70;99.90;;;;;;5071610;28;20184;-44
2021/07/05 02:48:29;;;;;;;1999.90;999.90;;;7.60;99.90;;;;;;5072191;28;20162;-44
2021/07/05 02:50:59;;;;;;;1999.90;999.90;;;7.70;99.90;;;;;;5072212;28;20169;-44
2021/07/05 02:53:27;;;;;;;1999.90;999.90;;;7.60;99.90;;;;;;5071743;28;20246;-44
2021/07/05 02:55:54;;;;;;;1999.90;999.90;;;7.60;99.90;;;;;;5072139;28;20167;-44
2021/07/05 02:58:23;;;;;;;1999.90;999.90;;;7.60;99.90;;;;;;5071684;28;20167;-44
2021/07/05 03:00:54;;;;;;;1999.90;999.90;;;7.60;99.90;;;;;;5071783;28;20716;-44
2021/07/05 03:03:21;;;;;;;1999.90;999.90;;;7.60;99.90;;;;;;5071821;28;20164;-44
2021/07/05 03:05:49;;;;;;;1999.90;999.90;;;7.60;99.90;;;;;;5071660;28;20175;-44
2021/07/05 03:08:16;;;;;;;1999.90;999.90;;;7.50;99.90;;;;;;5071458;28;20176;-44
2021/07/05 03:10:44;;;;;;;1999.90;999.90;;;7.40;99.90;;;;;;5071369;28;20208;-44
2021/07/05 03:13:14;;;;;;;1999.90;999.90;;;7.40;99.90;;;;;;5071469;28;20577;-44
2021/07/05 03:15:42;;;;;;;1999.90;999.90;;;7.40;99.90;;;;;;5071752;28;20187;-44
2021/07/05 03:18:10;;;;;;;1999.90;999.90;;;7.50;99.90;;;;;;5071344;28;20179;-44
2021/07/05 03:20:41;;;;;;;1999.90;999.90;;;7.60;99.90;;;;;;5053551;28;20200;-44
2021/07/05 03:23:10;;;;;;;1999.90;999.90;;;7.60;99.90;;;;;;5071604;28;20156;-44
2021/07/05 03:25:38;;;;;;;1999.90;999.90;;;7.60;99.90;;;;;;5071137;28;20227;-44
2021/07/05 03:28:06;;;;;;;1999.90;999.90;;;7.60;99.90;;;;;;5071137;28;20186;-44
2021/07/05 03:30:35;;;;;;;1999.90;999.90;;;7.50;99.90;;;;;;5071486;28;20172;-44
2021/07/05 03:33:01;;;;;;;1999.90;999.90;;;7.50;99.90;;;;;;5071028;28;20662;-44
2021/07/05 03:35:29;;;;;;;1999.90;999.90;;;7.40;99.90;;;;;;5071429;28;20246;-44
2021/07/05 03:37:57;;;;;;;1999.90;999.90;;;7.40;99.90;;;;;;5071200;28;20179;-46
2021/07/05 03:40:28;;;;;;;1999.90;999.90;;;7.50;99.90;;;;;;5071148;28;20222;-46
2021/07/05 03:42:56;;;;;;;1999.90;999.90;;;7.40;99.90;;;;;;5071368;28;20171;-44
2021/07/05 03:45:27;;;;;;;1999.90;999.90;;;7.40;99.90;;;;;;5071285;28;20171;-44
2021/07/05 03:47:55;;;;;;;1999.90;999.90;;;7.30;99.90;;;;;;5070966;28;20163;-44
2021/07/05 03:50:23;;;;;;;1999.90;999.90;;;7.20;99.90;;;;;;5072038;28;20527;-45
2021/07/05 03:52:51;;;;;;;1999.90;999.90;;;7.10;99.90;;;;;;5053327;28;20195;-44
2021/07/05 03:55:22;;;;;;;1999.90;999.90;;;7.20;99.90;;;;;;5071061;28;20253;-44
2021/07/05 03:57:51;;;;;;;1999.90;999.90;;;7.10;99.90;;;;;;5071538;28;20215;-44
2021/07/05 04:00:21;;;;;;;1999.90;999.90;;;7.10;99.90;;;;;;5070836;28;20482;-44
2021/07/05 04:02:48;;;;;;;1999.90;999.90;;;7.20;99.90;;;;;;5070984;28;20169;-44
2021/07/05 04:05:15;;;;;;;1999.90;999.90;;;7.20;99.90;;;;;;5071001;28;20251;-44
2021/07/05 04:07:44;;;;;;;1999.90;999.90;;;7.10;99.90;;;;;;5070715;28;20513;-44
2021/07/05 04:10:12;;;;;;;1999.90;999.90;;;7.10;99.90;;;;;;5070551;28;20211;-44
2021/07/05 04:12:40;;;;;;;1999.90;999.90;;;7.20;99.90;;;;;;5070801;28;20225;-44
2021/07/05 04:15:08;;;;;;;1999.90;999.90;;;7.30;99.90;;;;;;5070791;28;20170;-44
2021/07/05 04:17:35;;;;;;;1999.90;999.90;;;7.20;99.90;;;;;;5071110;28;20180;-44
2021/07/05 04:20:04;;;;;;;1999.90;999.90;;;7.20;99.90;;;;;;5070620;28;20163;-43
2021/07/05 04:22:31;;;;;;;1999.90;999.90;;;7.10;99.90;;;;;;5070543;28;20215;-44
2021/07/05 04:24:57;;;;;;;1999.90;999.90;;;7.00;99.90;;;;;;5071060;28;20175;-45
2021/07/05 04:27:24;;;;;;;1999.90;999.90;;;7.00;99.90;;;;;;5070595;28;20164;-44
2021/07/05 04:29:51;;;;;;;1999.90;999.90;;;6.90;99.90;;;;;;5070845;28;20168;-44
2021/07/05 04:32:17;;;;;;;1999.90;999.90;;;6.90;99.90;;;;;;5070901;28;20193;-44
2021/07/05 04:34:44;;;;;;;1999.90;999.90;;;6.90;99.90;;;;;;5072983;28;20164;-44
2021/07/05 04:37:11;;;;;;;1999.90;999.90;;;6.90;99.90;;;;;;5074594;28;20533;-44
2021/07/05 04:39:38;;;;;;;1999.90;999.90;;;6.90;99.90;;;;;;5074467;28;20181;-44
2021/07/05 04:42:04;;;;;;;1999.90;999.90;;;6.90;99.90;;;;;;5074123;28;20207;-44
2021/07/05 04:44:31;;;;;;;1999.90;999.90;;;6.90;99.90;;;;;;5074123;28;20170;-44
2021/07/05 04:46:58;;;;;;;1999.90;999.90;;;6.90;99.90;;;;;;5074402;28;20169;-44
2021/07/05 04:49:26;;;;;;;1999.90;999.90;;;6.90;99.90;;;;;;5073957;28;20649;-44
2021/07/05 04:51:53;;;;;;;1999.90;999.90;;;6.90;99.90;;;;;;5074294;28;20170;-44
2021/07/05 04:54:20;;;;;;;1999.90;999.90;;;6.80;99.90;;;;;;5074127;28;20218;-44
2021/07/05 04:56:47;;;;;;;1999.90;999.90;;;6.80;99.90;;;;;;5073732;28;20182;-44
2021/07/05 04:59:14;;;;;;;1999.90;999.90;;;6.70;99.90;;;;;;5074466;28;21098;-44
2021/07/05 05:01:44;;;;;;;1999.90;999.90;;;6.70;99.90;;;;;;5073451;28;20557;-44
2021/07/05 05:04:10;;;;;;;1999.90;999.90;;;6.70;99.90;;;;;;5073829;28;20173;-44
2021/07/05 05:06:37;;;;;;;1999.90;999.90;;;6.70;99.90;;;;;;5073990;28;20514;-44
2021/07/05 05:09:04;;;;;;;1999.90;999.90;;;6.60;99.90;;;;;;5073715;28;20165;-46
2021/07/05 05:11:31;;;;;;;1999.90;999.90;;;6.60;99.90;;;;;;5073710;28;20221;-44
2021/07/05 05:13:58;;;;;;;1999.90;999.90;;;6.60;99.90;;;;;;5073823;28;20175;-44
2021/07/05 05:16:25;;;;;;;1999.90;999.90;;;6.60;99.90;;;;;;5074263;28;20168;-44
2021/07/05 05:18:51;;;;;;;1999.90;999.90;;;6.70;99.90;;;;;;5073794;28;20164;-44
2021/07/05 05:21:18;;;;;;;1999.90;999.90;;;6.60;99.90;;;;;;5073618;28;20216;-44
2021/07/05 05:23:45;;;;;;;1999.90;999.90;;;6.60;99.90;;;;;;5073389;28;20169;-44
2021/07/05 05:26:12;;;;;;;1999.90;999.90;;;6.60;99.90;;;;;;5073655;28;20173;-44
2021/07/05 05:28:39;;;;;;;1999.90;999.90;;;6.60;99.90;;;;;;5073332;28;20169;-44
2021/07/05 05:31:05;;;;;;;1999.90;999.90;;;6.60;99.90;;;;;;5073196;28;20193;-45
2021/07/05 05:33:34;;;;;;;1999.90;999.90;;;6.60;99.90;;;;;;5073560;28;20230;-44
2021/07/05 05:36:01;;;;;;;1999.90;999.90;;;6.60;99.90;;;;;;5072864;28;20223;-45
2021/07/05 05:38:28;;;;;;;1999.90;999.90;;;6.50;99.90;;;;;;5073117;28;20163;-44
2021/07/05 05:40:54;;;;;;;1999.90;999.90;;;6.50;99.90;;;;;;5073404;28;20793;-44
2021/07/05 05:43:21;;;;;;;1999.90;999.90;;;6.50;99.90;;;;;;5073060;28;20212;-44
2021/07/05 05:45:48;;;;;;;1999.90;999.90;;;6.50;99.90;;;;;;5073323;28;20162;-44
2021/07/05 05:48:15;;;;;;;1999.90;999.90;;;6.50;99.90;;;;;;5072948;28;20639;-46
2021/07/05 05:50:41;;;;;;;1999.90;999.90;;;6.50;99.90;;;;;;5073030;28;20182;-47
2021/07/05 05:53:08;;;;;;;1999.90;999.90;;;6.60;99.90;;;;;;5072929;28;20196;-44
2021/07/05 05:55:35;;;;;;;1999.90;999.90;;;6.60;99.90;;;;;;5072853;28;20197;-44
2021/07/05 05:58:02;;;;;;;1999.90;999.90;;;6.60;99.90;;;;;;5072778;28;20175;-44
2021/07/05 06:00:28;;;;;;;1999.90;999.90;;;6.60;99.90;;;;;;5073065;28;20588;-45
2021/07/05 06:02:55;;;;;;;1999.90;999.90;;;6.60;99.90;;;;;;5072400;28;20185;-56
2021/07/05 06:05:22;;;;;;;1999.90;999.90;;;6.70;99.90;;;;;;5072528;28;20569;-61
2021/07/05 06:07:50;;;;;;;1999.90;999.90;;;6.70;99.90;;;;;;5073195;28;20180;-53
2021/07/05 06:10:19;;;;;;;1999.90;999.90;;;7.00;99.90;;;;;;5071894;28;20643;-51
2021/07/05 06:12:46;;;;;;;1999.90;999.90;;;7.10;99.90;;;;;;5072403;28;20177;-50
2021/07/05 06:15:14;;;;;;;1999.90;999.90;;;7.10;99.90;;;;;;5072766;28;20257;-50
2021/07/05 06:17:42;;;;;;;1999.90;999.90;;;7.10;99.90;;;;;;5072234;28;20739;-49
2021/07/05 06:20:09;;;;;;;1999.90;999.90;;;7.30;99.90;;;;;;5070763;28;20172;-46
2021/07/05 06:25:35;;;;;;;1999.90;999.90;;;7.60;99.90;;;;;;5037690;28;20186;-50
2021/07/05 06:28:03;;;;;;;1999.90;999.90;;;7.60;99.90;;;;;;5072270;28;20168;-55
2021/07/05 06:30:30;;;;;;;1999.90;999.90;;;7.80;99.90;;;;;;5071918;28;20596;-50
2021/07/05 06:32:56;;;;;;;1999.90;999.90;;;8.40;99.90;;;;;;5071369;28;20198;-56
2021/07/05 06:35:23;;;;;;;1999.90;999.90;;;8.20;99.90;;;;;;5072080;28;20169;-45
2021/07/05 06:37:50;;;;;;;1999.90;999.90;;;8.40;99.90;;;;;;5071708;28;20164;-62
2021/07/05 06:40:17;;;;;;;1999.90;999.90;;;8.90;99.90;;;;;;5071511;28;20206;-44
2021/07/05 06:42:44;;;;;;;1999.90;999.90;;;8.80;99.90;;;;;;5071683;28;20551;-50
2021/07/05 06:45:11;;;;;;;1999.90;999.90;;;8.60;99.90;;;;;;5071603;28;20241;-43
2021/07/05 06:47:37;;;;;;;1999.90;999.90;;;8.60;99.90;;;;;;5072939;28;20171;-51
2021/07/05 06:50:06;;;;;;;1999.90;999.90;;;8.50;99.90;;;;;;5072116;28;20164;-57
2021/07/05 06:52:33;;;;;;;1999.90;999.90;;;8.30;99.90;;;;;;5071483;28;20249;-44
2021/07/05 06:55:01;;;;;;;1999.90;999.90;;;8.30;99.90;;;;;;5071006;28;20210;-54
2021/07/05 06:57:33;;;;;;;1999.90;999.90;;;8.30;99.90;;;;;;5070881;28;20184;-64
2021/07/05 07:00:05;;;;;;;1999.90;999.90;;;8.50;99.90;;;;;;5070926;28;20172;-49
2021/07/05 07:02:33;;;;;;;1999.90;999.90;;;8.50;99.90;;;;;;5071672;28;20171;-54
2021/07/05 07:05:00;;;;;;;1999.90;999.90;;;8.60;99.90;;;;;;5070922;28;20219;-49
2021/07/05 07:07:27;;;;;;;1999.90;999.90;;;8.60;99.90;;;;;;5070886;28;20180;-43
2021/07/05 07:09:53;;;;;;;1999.90;999.90;;;8.70;99.90;;;;;;5072083;28;20168;-56
2021/07/05 07:12:20;;;;;;;1999.90;999.90;;;9.00;99.90;;;;;;5071083;28;20302;-44
2021/07/05 07:14:47;;;;;;;1999.90;999.90;;;9.50;99.90;;;;;;5071175;28;20610;-43
2021/07/05 07:19:51;;;;;;;1999.90;999.90;;;9.30;99.90;;;;;;5070986;28;20213;-42
2021/07/05 07:22:19;;;;;;;1999.90;999.90;;;9.20;99.90;;;;;;5070414;28;20207;-52
2021/07/05 07:24:46;;;;;;;1999.90;999.90;;;9.10;99.90;;;;;;5069722;28;20177;-52
2021/07/05 07:27:14;;;;;;;1999.90;999.90;;;9.20;99.90;;;;;;5070363;28;20271;-65
2021/07/05 07:29:41;;;;;;;1999.90;999.90;;;9.30;99.90;;;;;;5070512;28;20195;-55
2021/07/05 07:32:08;;;;;;;1999.90;999.90;;;9.90;99.90;;;;;;5070708;28;20194;-59
2021/07/05 07:34:36;;;;;;;1999.90;999.90;;;10.70;99.90;;;;;;5070594;28;20176;-53
2021/07/05 07:37:06;;;;;;;1999.90;999.90;;;10.60;99.90;;;;;;5071126;28;20203;-52
2021/07/05 07:39:58;;;;;;;1999.90;999.90;;;10.40;99.90;;;;;;5070295;28;20718;-55
2021/07/05 07:42:20;;;;;;;1999.90;999.90;;;10.30;99.90;;;;;;5068929;28;20689;-57
2021/07/05 07:44:47;;;;;;;1999.90;999.90;;;10.20;99.90;;;;;;5070683;28;20172;-51
2021/07/05 07:47:13;;;;;;;1999.90;999.90;;;10.10;99.90;;;;;;5070421;28;20176;-63
2021/07/05 07:49:40;;;;;;;1999.90;999.90;;;10.10;99.90;;;;;;5070600;28;20225;-62
2021/07/05 07:52:07;;;;;;;1999.90;999.90;;;10.10;99.90;;;;;;5070615;28;20223;-56
2021/07/05 07:54:34;;;;;;;1999.90;999.90;;;10.20;99.90;;;;;;5070200;28;20168;-51
2021/07/05 07:57:02;;;;;;;1999.90;999.90;;;10.30;99.90;;;;;;5070390;28;20223;-54
2021/07/05 07:59:28;;;;;;;1999.90;999.90;;;10.40;99.90;;;;;;5070598;28;20202;-55
2021/07/05 08:01:55;;;;;;;1999.90;999.90;;;10.50;99.90;;;;;;5070181;28;20211;-57
2021/07/05 08:04:22;;;;;;;1999.90;999.90;;;10.60;99.90;;;;;;5070578;28;20173;-58
2021/07/05 08:06:49;;;;;;;1999.90;999.90;;;10.70;99.90;;;;;;5070450;28;20534;-44
2021/07/05 08:09:15;;;;;;;1999.90;999.90;;;10.80;99.90;;;;;;5071883;28;20165;-50
2021/07/05 08:11:42;;;;;;;1999.90;999.90;;;10.80;99.90;;;;;;5074503;28;20298;-60
2021/07/05 08:14:09;;;;;;;1999.90;999.90;;;11.10;99.90;;;;;;5074269;28;20176;-58
2021/07/05 08:16:36;;;;;;;1999.90;999.90;;;11.20;99.90;;;;;;5074082;28;20187;-46
2021/07/05 08:19:04;;;;;;;1999.90;999.90;;;11.40;99.90;;;;;;5074405;28;20176;-67
2021/07/05 08:21:32;;;;;;;1999.90;999.90;;;11.40;99.90;;;;;;5076183;28;20254;-65
2021/07/05 08:23:58;;;;;;;1999.90;999.90;;;11.50;99.90;;;;;;5074933;28;20177;-64
2021/07/05 08:26:25;;;;;;;1999.90;999.90;;;11.70;99.90;;;;;;5074303;28;20176;-61
2021/07/05 08:28:52;;;;;;;1999.90;999.90;;;11.80;99.90;;;;;;5074221;28;20179;-61
2021/07/05 08:31:19;;;;;;;1999.90;999.90;;;12.10;99.90;;;;;;5074305;28;20176;-59
2021/07/05 08:33:47;;;;;;;1999.90;999.90;;;12.30;99.90;;;;;;5074059;28;20176;-60
2021/07/05 08:36:15;;;;;;;1999.90;999.90;;;13.10;99.90;;;;;;5073465;28;20239;-47
2021/07/05 08:38:42;;;;;;;1999.90;999.90;;;14.20;99.90;;;;;;5074169;28;20188;-48
2021/07/05 08:41:08;;;;;;;1999.90;999.90;;;14.40;99.90;;;;;;5073413;28;20223;-50
2021/07/05 08:43:36;;;;;;;1999.90;999.90;;;14.40;99.90;;;;;;5073703;28;20169;-49
2021/07/05 08:46:05;;;;;;;1999.90;999.90;;;14.80;99.90;;;;;;5074044;28;20199;-52
2021/07/05 08:48:37;;;;;;;1999.90;999.90;;;15.00;99.90;;;;;;5073405;28;20161;-54
2021/07/05 08:51:07;;;;;;;1999.90;999.90;;;14.60;99.90;;;;;;5073594;28;20171;-49
2021/07/05 08:53:34;;;;;;;1999.90;999.90;;;14.30;99.90;;;;;;5073536;28;20198;-56
2021/07/05 08:56:01;;;;;;;1999.90;999.90;;;14.50;99.90;;;;;;5073604;28;20160;-61
2021/07/05 08:58:28;;;;;;;1999.90;999.90;;;15.20;99.90;;;;;;5073233;28;20261;-56
2021/07/05 09:00:55;;;;;;;1999.90;999.90;;;15.50;99.90;;;;;;5073117;28;20279;-60
2021/07/05 09:03:27;;;;;;;1999.90;999.90;;;15.80;99.90;;;;;;5073312;28;20205;-49
2021/07/05 09:06:16;;;;;;;1999.90;999.90;;;16.00;99.90;;;;;;5073629;28;20270;-56
2021/07/05 09:09:04;;;;;;;1999.90;999.90;;;16.10;99.90;;;;;;5073135;28;20157;-59
2021/07/05 09:11:48;;;;;;;1999.90;999.90;;;16.40;99.90;;;;;;5055822;28;20631;-53
2021/07/05 09:14:23;;;;;;;1999.90;999.90;;;16.40;99.90;;;;;;5071388;28;20607;-48
2021/07/05 09:16:52;;;;;;;1999.90;999.90;;;16.20;99.90;;;;;;5072605;28;20278;-63
2021/07/05 09:19:25;;;;;;;1999.90;999.90;;;15.80;99.90;;;;;;5069889;28;20509;-61
2021/07/05 09:21:58;;;;;;;1999.90;999.90;;;15.60;99.90;;;;;;5072732;28;20200;-60
2021/07/05 09:24:35;;;;;;;1999.90;999.90;;;15.90;99.90;;;;;;5072423;28;20551;-47
2021/07/05 09:27:04;;;;;;;1999.90;999.90;;;16.00;99.90;;;;;;5073028;28;20242;-48
2021/07/05 09:29:32;;;;;;;1999.90;999.90;;;15.60;99.90;;;;;;5072935;28;20179;-48
2021/07/05 09:32:01;;;;;;;1999.90;999.90;;;15.20;99.90;;;;;;5072541;28;20212;-60
2021/07/05 09:34:31;;;;;;;1999.90;999.90;;;15.20;99.90;;;;;;5073151;28;20165;-59
2021/07/05 09:37:23;;;;;;;1999.90;999.90;;;15.50;99.90;;;;;;5072884;28;20171;-59
2021/07/05 09:40:06;;;;;;;1999.90;999.90;;;15.50;99.90;;;;;;5072936;28;20231;-58
2021/07/05 09:42:38;;;;;;;1999.90;999.90;;;15.50;99.90;;;;;;5073056;28;20642;-65
2021/07/05 09:45:12;;;;;;;1999.90;999.90;;;15.40;99.90;;;;;;5072817;28;20252;-53
2021/07/05 09:47:39;;;;;;;1999.90;999.90;;;15.40;99.90;;;;;;5073092;28;20163;-61
2021/07/05 09:50:16;;;;;;;1999.90;999.90;;;15.40;99.90;;;;;;5072890;28;20161;-68
2021/07/05 09:52:44;;;;;;;1999.90;999.90;;;16.30;99.90;;;;;;5072980;28;20160;-61
2021/07/05 09:55:17;;;;;;;1999.90;999.90;;;17.10;97.60;;;;;;5072959;28;20192;-61
2021/07/05 09:57:50;;;;;;;1999.90;999.90;;;17.60;96.10;;;;;;5073085;28;20161;-47
2021/07/05 10:00:21;;;;;;;1999.90;999.90;;;17.30;93.90;;;;;;5072599;28;20173;-46
2021/07/05 10:02:56;;;;;;;1999.90;999.90;;;16.90;94.80;;;;;;5072591;28;20176;-49
2021/07/05 10:05:23;;;;;;;1999.90;999.90;;;16.60;97.90;;;;;;5072521;28;20198;-45
2021/07/05 10:08:09;;;;;;;1999.90;999.90;;;16.30;97.90;;;;;;5072494;28;20207;-46
2021/07/05 10:10:39;;;;;;;1999.90;999.90;;;16.90;98.50;;;;;;5071916;28;20295;-53
2021/07/05 10:13:11;;;;;;;1999.90;999.90;;;16.80;99.30;;;;;;5072235;28;20549;-51
2021/07/05 10:15:39;;;;;;;1999.90;999.90;;;16.60;98.70;;;;;;5072531;28;20167;-52
2021/07/05 10:18:06;;;;;;;1999.90;999.90;;;17.00;96.40;;;;;;5071916;28;20187;-54
2021/07/05 10:20:39;;;;;;;1999.90;999.90;;;16.90;87.50;;;;;;5071928;28;20196;-49
2021/07/05 10:23:14;;;;;;;1999.90;999.90;;;17.10;93.60;;;;;;5071831;28;20172;-59
2021/07/05 10:25:48;;;;;;;1999.90;999.90;;;17.40;87.60;;;;;;5071511;28;20611;-57
2021/07/05 10:28:16;;;;;;;1999.90;999.90;;;17.50;89.70;;;;;;5071549;28;20149;-45
2021/07/05 10:30:45;;;;;;;1999.90;999.90;;;17.60;89.50;;;;;;5071207;28;20164;-54
2021/07/05 10:33:12;;;;;;;1999.90;999.90;;;17.40;91.60;;;;;;5070621;28;20230;-60
2021/07/05 10:35:44;;;;;;;1999.90;999.90;;;17.90;92.30;;;;;;5071759;28;20167;-48
2021/07/05 10:38:31;;;;;;;1999.90;999.90;;;18.10;83.40;;;;;;5071302;28;20153;-44
2021/07/05 10:41:10;;;;;;;1999.90;999.90;;;17.90;81.00;;;;;;5071644;28;20233;-43
2021/07/05 10:44:04;;;;;;;1999.90;999.90;;;17.60;80.60;;;;;;5071554;28;20202;-46
2021/07/05 10:46:46;;;;;;;1999.90;999.90;;;17.20;85.90;;;;;;5071137;28;20243;-51
2021/07/05 10:49:31;;;;;;;1999.90;999.90;;;17.10;82.80;;;;;;5070830;28;20696;-66
2021/07/05 10:52:03;;;;;;;1999.90;999.90;;;17.20;70.70;;;;;;5069571;28;20172;-45
2021/07/05 10:54:47;;;;;;;1999.90;999.90;;;17.40;67.40;;;;;;5070755;28;20234;-50
2021/07/05 10:57:17;;;;;;;1999.90;999.90;;;17.40;74.00;;;;;;5071745;28;20248;-67
2021/07/05 10:59:46;;;;;;;1999.90;999.90;;;17.10;81.50;;;;;;5071588;28;20184;-48
2021/07/05 11:02:46;;;;;;;1999.90;999.90;;;17.40;80.00;;;;;;5071255;28;20657;-63
2021/07/05 11:05:35;;;;;;;1999.90;999.90;;;18.10;79.20;;;;;;5052799;28;20176;-64
2021/07/05 11:08:22;;;;;;;1999.90;999.90;;;17.60;72.60;;;;;;5071637;28;20511;-64
2021/07/05 11:11:10;;;;;;;1999.90;999.90;;;17.30;86.50;;;;;;5071223;28;20208;-63
2021/07/05 11:13:38;;;;;;;1999.90;999.90;;;17.30;88.40;;;;;;5071275;28;20173;-47
2021/07/05 11:16:05;;;;;;;1999.90;999.90;;;17.60;90.80;;;;;;5069666;28;20658;-59
2021/07/05 11:18:44;;;;;;;1999.90;999.90;;;18.20;85.30;;;;;;5071391;28;20639;-60
2021/07/05 11:21:43;;;;;;;1999.90;999.90;;;19.00;72.60;;;;;;5070988;28;20283;-58
2021/07/05 11:24:11;;;;;;;1999.90;999.90;;;19.40;67.30;;;;;;5071308;28;20190;-60
2021/07/05 11:26:41;;;;;;;1999.90;999.90;;;19.70;62.80;;;;;;5070932;28;20583;-59
2021/07/05 11:29:17;;;;;;;1999.90;999.90;;;19.50;61.20;;;;;;5071295;28;20168;-60
2021/07/05 11:31:55;;;;;;;1999.90;999.90;;;19.70;60.60;;;;;;5071072;28;20182;-62
2021/07/05 11:34:35;;;;;;;1999.90;999.90;;;19.70;56.50;;;;;;5071278;28;20540;-61
2021/07/05 11:37:14;;;;;;;1999.90;999.90;;;19.90;56.20;;;;;;5071219;28;20183;-53
2021/07/05 11:39:47;;;;;;;1999.90;999.90;;;19.60;56.10;;;;;;5071066;28;20176;-53
2021/07/05 11:42:35;;;;;;;1999.90;999.90;;;19.00;61.90;;;;;;5071036;28;20788;-52
2021/07/05 11:45:02;;;;;;;1999.90;999.90;;;18.80;64.70;;;;;;5058459;28;20630;-50
2021/07/05 11:47:48;;;;;;;1999.90;999.90;;;18.50;67.20;;;;;;5077452;28;20653;-47
2021/07/05 11:50:24;;;;;;;1999.90;999.90;;;18.20;69.00;;;;;;5077550;28;20164;-58
2021/07/05 11:53:02;;;;;;;1999.90;999.90;;;17.70;63.80;;;;;;5076153;28;20649;-59
2021/07/05 11:55:35;;;;;;;1999.90;999.90;;;17.80;70.90;;;;;;5076670;28;20156;-61
2021/07/05 11:58:07;;;;;;;1999.90;999.90;;;17.90;72.10;;;;;;5075619;28;20239;-60
2021/07/05 12:00:37;;;;;;;1999.90;999.90;;;17.60;65.60;;;;;;5075927;28;20188;-47
2021/07/05 12:03:14;;;;;;;1999.90;999.90;;;17.50;66.50;;;;;;5076877;28;20236;-50
2021/07/05 12:05:43;;;;;;;1999.90;999.90;;;17.60;67.20;;;;;;5077875;28;20164;-44
2021/07/05 12:08:12;;;;;;;1999.90;999.90;;;17.50;71.10;;;;;;5076955;28;20180;-44
2021/07/05 12:10:41;;;;;;;1999.90;999.90;;;17.70;70.60;;;;;;5076678;28;20204;-43
2021/07/05 12:13:28;;;;;;;1999.90;999.90;;;17.80;71.40;;;;;;5076916;28;20556;-57
2021/07/05 12:16:03;;;;;;;1999.90;999.90;;;18.10;81.10;;;;;;5077027;28;20213;-52
2021/07/05 12:18:31;;;;;;;1999.90;999.90;;;19.00;74.40;;;;;;5077510;28;20168;-55
2021/07/05 12:21:02;;;;;;;1999.90;999.90;;;19.70;67.00;;;;;;5077056;28;20650;-52